sensor_id;sensor_type;location;lat;lon;timestamp;P1;durP1;ratioP1;P2;durP2;ratioP2
4835;SDS011;2432;51.226;6.904;2022-09-09T00:01:35;21.97;;;1.80;;
4835;SDS011;2432;51.226;6.904;2022-09-09T00:04:14;9.97;;;1.57;;
4835;SDS011;2432;51.226;6.904;2022-09-09T00:06:59;12.10;;;1.70;;
4835;SDS011;2432;51.226;6.904;2022-09-09T00:09:46;10.10;;;1.80;;
4835;SDS011;2432;51.226;6.904;2022-09-09T00:12:17;8.63;;;1.23;;
4835;SDS011;2432;51.226;6.904;2022-09-09T00:14:55;9.80;;;1.60;;
4835;SDS011;2432;51.226;6.904;2022-09-09T00:20:12;9.40;;;1.60;;
4835;SDS011;2432;51.226;6.904;2022-09-09T00:22:45;10.30;;;1.40;;
4835;SDS011;2432;51.226;6.904;2022-09-09T00:25:24;8.20;;;1.40;;
4835;SDS011;2432;51.226;6.904;2022-09-09T00:27:55;10.67;;;1.57;;
4835;SDS011;2432;51.226;6.904;2022-09-09T00:32:50;11.00;;;1.70;;
4835;SDS011;2432;51.226;6.904;2022-09-09T00:37:56;8.70;;;1.63;;
4835;SDS011;2432;51.226;6.904;2022-09-09T00:40:32;10.47;;;1.70;;
4835;SDS011;2432;51.226;6.904;2022-09-09T00:51:35;11.50;;;1.63;;
4835;SDS011;2432;51.226;6.904;2022-09-09T00:54:27;11.30;;;1.77;;
4835;SDS011;2432;51.226;6.904;2022-09-09T01:08:02;10.97;;;2.20;;
4835;SDS011;2432;51.226;6.904;2022-09-09T01:13:15;10.13;;;1.63;;
4835;SDS011;2432;51.226;6.904;2022-09-09T01:16:02;9.90;;;1.80;;
4835;SDS011;2432;51.226;6.904;2022-09-09T01:18:33;11.37;;;1.70;;
4835;SDS011;2432;51.226;6.904;2022-09-09T01:24:05;8.97;;;1.50;;
4835;SDS011;2432;51.226;6.904;2022-09-09T01:26:42;9.27;;;1.70;;
4835;SDS011;2432;51.226;6.904;2022-09-09T01:29:11;8.17;;;1.60;;
4835;SDS011;2432;51.226;6.904;2022-09-09T01:31:41;9.33;;;1.67;;
4835;SDS011;2432;51.226;6.904;2022-09-09T01:34:17;10.07;;;2.00;;
4835;SDS011;2432;51.226;6.904;2022-09-09T01:36:45;8.90;;;1.77;;
4835;SDS011;2432;51.226;6.904;2022-09-09T01:39:17;8.53;;;1.43;;
4835;SDS011;2432;51.226;6.904;2022-09-09T01:41:44;9.60;;;1.77;;
4835;SDS011;2432;51.226;6.904;2022-09-09T01:44:11;8.93;;;2.00;;
4835;SDS011;2432;51.226;6.904;2022-09-09T01:46:38;8.73;;;1.77;;
4835;SDS011;2432;51.226;6.904;2022-09-09T01:49:05;11.57;;;1.90;;
4835;SDS011;2432;51.226;6.904;2022-09-09T01:51:34;10.00;;;1.83;;
4835;SDS011;2432;51.226;6.904;2022-09-09T01:54:02;8.60;;;1.77;;
4835;SDS011;2432;51.226;6.904;2022-09-09T02:04:46;13.40;;;1.60;;
4835;SDS011;2432;51.226;6.904;2022-09-09T02:09:57;9.00;;;1.50;;
4835;SDS011;2432;51.226;6.904;2022-09-09T02:12:28;8.90;;;1.53;;
4835;SDS011;2432;51.226;6.904;2022-09-09T02:14:59;8.20;;;1.97;;
4835;SDS011;2432;51.226;6.904;2022-09-09T02:17:31;7.90;;;1.70;;
4835;SDS011;2432;51.226;6.904;2022-09-09T02:20:04;11.03;;;2.30;;
4835;SDS011;2432;51.226;6.904;2022-09-09T02:22:34;10.13;;;2.23;;
4835;SDS011;2432;51.226;6.904;2022-09-09T02:25:06;13.63;;;2.80;;
4835;SDS011;2432;51.226;6.904;2022-09-09T02:27:34;11.40;;;2.30;;
4835;SDS011;2432;51.226;6.904;2022-09-09T02:30:01;12.80;;;3.00;;
4835;SDS011;2432;51.226;6.904;2022-09-09T02:32:29;13.10;;;2.40;;
4835;SDS011;2432;51.226;6.904;2022-09-09T02:35:01;12.90;;;2.57;;
4835;SDS011;2432;51.226;6.904;2022-09-09T02:37:32;9.40;;;2.50;;
4835;SDS011;2432;51.226;6.904;2022-09-09T02:40:03;10.57;;;2.83;;
4835;SDS011;2432;51.226;6.904;2022-09-09T02:42:41;10.37;;;2.70;;
4835;SDS011;2432;51.226;6.904;2022-09-09T02:45:10;12.73;;;2.53;;
4835;SDS011;2432;51.226;6.904;2022-09-09T02:50:50;9.20;;;2.40;;
4835;SDS011;2432;51.226;6.904;2022-09-09T02:56:23;13.47;;;2.40;;
4835;SDS011;2432;51.226;6.904;2022-09-09T02:58:54;10.37;;;2.30;;
4835;SDS011;2432;51.226;6.904;2022-09-09T03:01:21;12.70;;;2.30;;
4835;SDS011;2432;51.226;6.904;2022-09-09T03:03:48;13.60;;;2.30;;
4835;SDS011;2432;51.226;6.904;2022-09-09T03:06:14;10.73;;;2.27;;
4835;SDS011;2432;51.226;6.904;2022-09-09T03:08:41;13.60;;;2.60;;
4835;SDS011;2432;51.226;6.904;2022-09-09T03:11:14;11.80;;;2.63;;
4835;SDS011;2432;51.226;6.904;2022-09-09T03:13:41;11.30;;;2.33;;
4835;SDS011;2432;51.226;6.904;2022-09-09T03:16:08;8.83;;;2.10;;
4835;SDS011;2432;51.226;6.904;2022-09-09T03:18:34;12.40;;;2.40;;
4835;SDS011;2432;51.226;6.904;2022-09-09T03:21:01;16.13;;;2.43;;
4835;SDS011;2432;51.226;6.904;2022-09-09T03:23:27;11.30;;;2.20;;
4835;SDS011;2432;51.226;6.904;2022-09-09T03:25:54;10.93;;;2.10;;
4835;SDS011;2432;51.226;6.904;2022-09-09T03:28:23;17.13;;;2.17;;
4835;SDS011;2432;51.226;6.904;2022-09-09T03:30:51;11.60;;;2.00;;
4835;SDS011;2432;51.226;6.904;2022-09-09T03:33:17;9.10;;;2.00;;
4835;SDS011;2432;51.226;6.904;2022-09-09T03:35:45;14.70;;;2.30;;
4835;SDS011;2432;51.226;6.904;2022-09-09T03:38:14;10.50;;;2.20;;
4835;SDS011;2432;51.226;6.904;2022-09-09T03:40:48;11.00;;;1.70;;
4835;SDS011;2432;51.226;6.904;2022-09-09T03:43:15;15.57;;;2.43;;
4835;SDS011;2432;51.226;6.904;2022-09-09T03:45:46;10.60;;;2.00;;
4835;SDS011;2432;51.226;6.904;2022-09-09T03:48:14;10.20;;;1.80;;
4835;SDS011;2432;51.226;6.904;2022-09-09T03:50:45;10.87;;;2.23;;
4835;SDS011;2432;51.226;6.904;2022-09-09T03:53:17;11.83;;;2.00;;
4835;SDS011;2432;51.226;6.904;2022-09-09T03:55:46;11.23;;;2.10;;
4835;SDS011;2432;51.226;6.904;2022-09-09T03:58:14;11.73;;;2.00;;
4835;SDS011;2432;51.226;6.904;2022-09-09T04:00:41;11.30;;;2.10;;
4835;SDS011;2432;51.226;6.904;2022-09-09T04:03:11;10.47;;;2.20;;
4835;SDS011;2432;51.226;6.904;2022-09-09T04:05:41;11.10;;;1.70;;
4835;SDS011;2432;51.226;6.904;2022-09-09T04:08:08;11.50;;;2.30;;
4835;SDS011;2432;51.226;6.904;2022-09-09T04:10:35;10.10;;;2.07;;
4835;SDS011;2432;51.226;6.904;2022-09-09T04:13:04;11.50;;;1.93;;
4835;SDS011;2432;51.226;6.904;2022-09-09T04:15:31;10.93;;;2.30;;
4835;SDS011;2432;51.226;6.904;2022-09-09T04:17:58;10.87;;;2.33;;
4835;SDS011;2432;51.226;6.904;2022-09-09T04:20:24;11.30;;;2.70;;
4835;SDS011;2432;51.226;6.904;2022-09-09T04:22:51;12.30;;;2.83;;
4835;SDS011;2432;51.226;6.904;2022-09-09T04:25:17;14.93;;;2.50;;
4835;SDS011;2432;51.226;6.904;2022-09-09T04:27:44;12.40;;;2.30;;
4835;SDS011;2432;51.226;6.904;2022-09-09T04:30:10;11.03;;;2.33;;
4835;SDS011;2432;51.226;6.904;2022-09-09T04:32:38;11.03;;;2.40;;
4835;SDS011;2432;51.226;6.904;2022-09-09T04:35:04;12.60;;;2.43;;
4835;SDS011;2432;51.226;6.904;2022-09-09T04:37:31;11.40;;;2.23;;
4835;SDS011;2432;51.226;6.904;2022-09-09T04:39:57;14.17;;;2.80;;
4835;SDS011;2432;51.226;6.904;2022-09-09T04:42:25;10.60;;;2.83;;
4835;SDS011;2432;51.226;6.904;2022-09-09T04:44:52;15.30;;;3.37;;
4835;SDS011;2432;51.226;6.904;2022-09-09T04:47:18;10.47;;;2.80;;
4835;SDS011;2432;51.226;6.904;2022-09-09T04:49:45;12.80;;;2.73;;
4835;SDS011;2432;51.226;6.904;2022-09-09T04:52:11;16.13;;;3.17;;
4835;SDS011;2432;51.226;6.904;2022-09-09T04:54:38;10.37;;;2.20;;
4835;SDS011;2432;51.226;6.904;2022-09-09T04:57:05;13.40;;;2.13;;
4835;SDS011;2432;51.226;6.904;2022-09-09T04:59:31;12.53;;;2.37;;
4835;SDS011;2432;51.226;6.904;2022-09-09T05:01:57;15.73;;;2.30;;
4835;SDS011;2432;51.226;6.904;2022-09-09T05:04:24;17.30;;;3.47;;
4835;SDS011;2432;51.226;6.904;2022-09-09T05:06:50;11.10;;;3.03;;
4835;SDS011;2432;51.226;6.904;2022-09-09T05:09:17;10.47;;;2.63;;
4835;SDS011;2432;51.226;6.904;2022-09-09T05:11:43;10.50;;;2.40;;
4835;SDS011;2432;51.226;6.904;2022-09-09T05:14:10;10.47;;;2.60;;
4835;SDS011;2432;51.226;6.904;2022-09-09T05:16:38;14.13;;;2.80;;
4835;SDS011;2432;51.226;6.904;2022-09-09T05:19:05;15.83;;;2.90;;
4835;SDS011;2432;51.226;6.904;2022-09-09T05:21:34;15.23;;;3.07;;
4835;SDS011;2432;51.226;6.904;2022-09-09T05:24:00;13.23;;;3.17;;
4835;SDS011;2432;51.226;6.904;2022-09-09T05:26:27;14.80;;;2.73;;
4835;SDS011;2432;51.226;6.904;2022-09-09T05:28:55;14.43;;;2.77;;
4835;SDS011;2432;51.226;6.904;2022-09-09T05:31:22;13.47;;;2.97;;
4835;SDS011;2432;51.226;6.904;2022-09-09T05:33:48;12.10;;;2.73;;
4835;SDS011;2432;51.226;6.904;2022-09-09T05:36:16;10.67;;;2.43;;
4835;SDS011;2432;51.226;6.904;2022-09-09T05:38:44;15.40;;;2.90;;
4835;SDS011;2432;51.226;6.904;2022-09-09T05:41:11;14.97;;;3.47;;
4835;SDS011;2432;51.226;6.904;2022-09-09T05:43:41;12.90;;;2.77;;
4835;SDS011;2432;51.226;6.904;2022-09-09T05:46:11;16.30;;;3.13;;
4835;SDS011;2432;51.226;6.904;2022-09-09T05:48:40;13.80;;;3.17;;
4835;SDS011;2432;51.226;6.904;2022-09-09T05:51:09;15.53;;;3.00;;
4835;SDS011;2432;51.226;6.904;2022-09-09T05:53:38;15.40;;;2.70;;
4835;SDS011;2432;51.226;6.904;2022-09-09T05:56:06;10.70;;;2.37;;
4835;SDS011;2432;51.226;6.904;2022-09-09T05:58:37;14.83;;;3.47;;
4835;SDS011;2432;51.226;6.904;2022-09-09T06:01:08;13.30;;;3.10;;
4835;SDS011;2432;51.226;6.904;2022-09-09T06:03:37;10.00;;;2.40;;
4835;SDS011;2432;51.226;6.904;2022-09-09T06:06:06;13.10;;;2.83;;
4835;SDS011;2432;51.226;6.904;2022-09-09T06:08:35;20.63;;;2.87;;
4835;SDS011;2432;51.226;6.904;2022-09-09T06:11:07;10.50;;;2.47;;
4835;SDS011;2432;51.226;6.904;2022-09-09T06:13:35;14.90;;;2.63;;
4835;SDS011;2432;51.226;6.904;2022-09-09T06:16:05;11.53;;;3.03;;
4835;SDS011;2432;51.226;6.904;2022-09-09T06:18:34;14.00;;;2.83;;
4835;SDS011;2432;51.226;6.904;2022-09-09T06:21:02;15.77;;;3.23;;
4835;SDS011;2432;51.226;6.904;2022-09-09T06:23:33;15.27;;;2.67;;
4835;SDS011;2432;51.226;6.904;2022-09-09T06:26:04;12.43;;;2.40;;
4835;SDS011;2432;51.226;6.904;2022-09-09T06:28:32;14.20;;;2.60;;
4835;SDS011;2432;51.226;6.904;2022-09-09T06:31:00;15.17;;;2.83;;
4835;SDS011;2432;51.226;6.904;2022-09-09T06:33:32;12.80;;;2.50;;
4835;SDS011;2432;51.226;6.904;2022-09-09T06:36:01;18.30;;;2.40;;
4835;SDS011;2432;51.226;6.904;2022-09-09T06:38:29;12.97;;;2.70;;
4835;SDS011;2432;51.226;6.904;2022-09-09T06:40:57;14.10;;;2.70;;
4835;SDS011;2432;51.226;6.904;2022-09-09T06:43:25;11.93;;;2.40;;
4835;SDS011;2432;51.226;6.904;2022-09-09T06:46:03;14.77;;;3.27;;
4835;SDS011;2432;51.226;6.904;2022-09-09T06:48:32;11.83;;;2.23;;
4835;SDS011;2432;51.226;6.904;2022-09-09T06:53:30;17.33;;;2.30;;
4835;SDS011;2432;51.226;6.904;2022-09-09T06:56:00;14.17;;;2.67;;
4835;SDS011;2432;51.226;6.904;2022-09-09T06:58:49;13.13;;;2.30;;
4835;SDS011;2432;51.226;6.904;2022-09-09T07:01:18;16.07;;;2.90;;
4835;SDS011;2432;51.226;6.904;2022-09-09T07:03:47;10.43;;;2.60;;
4835;SDS011;2432;51.226;6.904;2022-09-09T07:06:23;14.17;;;2.33;;
4835;SDS011;2432;51.226;6.904;2022-09-09T07:08:51;13.43;;;2.77;;
4835;SDS011;2432;51.226;6.904;2022-09-09T07:11:22;24.83;;;2.80;;
4835;SDS011;2432;51.226;6.904;2022-09-09T07:13:52;11.53;;;2.30;;
4835;SDS011;2432;51.226;6.904;2022-09-09T07:16:19;13.33;;;2.10;;
4835;SDS011;2432;51.226;6.904;2022-09-09T07:18:49;12.67;;;2.40;;
4835;SDS011;2432;51.226;6.904;2022-09-09T07:21:17;14.83;;;2.50;;
4835;SDS011;2432;51.226;6.904;2022-09-09T07:23:43;11.30;;;2.30;;
4835;SDS011;2432;51.226;6.904;2022-09-09T07:26:10;18.00;;;2.80;;
4835;SDS011;2432;51.226;6.904;2022-09-09T07:28:41;11.13;;;2.10;;
4835;SDS011;2432;51.226;6.904;2022-09-09T07:31:15;11.10;;;2.47;;
4835;SDS011;2432;51.226;6.904;2022-09-09T07:33:43;13.43;;;2.67;;
4835;SDS011;2432;51.226;6.904;2022-09-09T07:36:15;13.13;;;2.30;;
4835;SDS011;2432;51.226;6.904;2022-09-09T07:38:52;13.13;;;2.30;;
4835;SDS011;2432;51.226;6.904;2022-09-09T07:41:24;12.30;;;2.40;;
4835;SDS011;2432;51.226;6.904;2022-09-09T07:43:53;13.53;;;2.07;;
4835;SDS011;2432;51.226;6.904;2022-09-09T07:46:21;11.77;;;2.27;;
4835;SDS011;2432;51.226;6.904;2022-09-09T07:48:50;12.60;;;2.47;;
4835;SDS011;2432;51.226;6.904;2022-09-09T07:51:29;15.90;;;2.40;;
4835;SDS011;2432;51.226;6.904;2022-09-09T07:53:58;14.80;;;2.50;;
4835;SDS011;2432;51.226;6.904;2022-09-09T07:56:26;11.47;;;2.30;;
4835;SDS011;2432;51.226;6.904;2022-09-09T07:58:55;16.83;;;2.47;;
4835;SDS011;2432;51.226;6.904;2022-09-09T08:01:23;16.20;;;1.90;;
4835;SDS011;2432;51.226;6.904;2022-09-09T08:04:01;13.30;;;3.50;;
4835;SDS011;2432;51.226;6.904;2022-09-09T08:06:30;12.43;;;2.37;;
4835;SDS011;2432;51.226;6.904;2022-09-09T08:08:59;13.73;;;2.43;;
4835;SDS011;2432;51.226;6.904;2022-09-09T08:11:27;13.43;;;1.73;;
4835;SDS011;2432;51.226;6.904;2022-09-09T08:13:54;10.83;;;1.70;;
4835;SDS011;2432;51.226;6.904;2022-09-09T08:16:37;11.40;;;2.20;;
4835;SDS011;2432;51.226;6.904;2022-09-09T08:19:09;10.83;;;1.83;;
4835;SDS011;2432;51.226;6.904;2022-09-09T08:21:36;10.13;;;1.73;;
4835;SDS011;2432;51.226;6.904;2022-09-09T08:24:05;11.70;;;2.00;;
4835;SDS011;2432;51.226;6.904;2022-09-09T08:26:33;12.73;;;2.67;;
4835;SDS011;2432;51.226;6.904;2022-09-09T08:29:02;11.43;;;1.87;;
4835;SDS011;2432;51.226;6.904;2022-09-09T08:31:31;15.80;;;2.30;;
4835;SDS011;2432;51.226;6.904;2022-09-09T08:33:59;11.77;;;2.07;;
4835;SDS011;2432;51.226;6.904;2022-09-09T08:36:30;13.87;;;2.20;;
4835;SDS011;2432;51.226;6.904;2022-09-09T08:38:59;13.43;;;2.50;;
4835;SDS011;2432;51.226;6.904;2022-09-09T08:57:58;13.07;;;2.10;;
4835;SDS011;2432;51.226;6.904;2022-09-09T09:06:26;13.37;;;2.10;;
4835;SDS011;2432;51.226;6.904;2022-09-09T09:11:53;12.67;;;2.10;;
4835;SDS011;2432;51.226;6.904;2022-09-09T09:14:27;15.77;;;2.30;;
4835;SDS011;2432;51.226;6.904;2022-09-09T09:16:57;14.33;;;2.10;;
4835;SDS011;2432;51.226;6.904;2022-09-09T09:19:31;16.37;;;2.03;;
4835;SDS011;2432;51.226;6.904;2022-09-09T09:27:24;12.60;;;2.87;;
4835;SDS011;2432;51.226;6.904;2022-09-09T09:30:04;12.07;;;1.90;;
4835;SDS011;2432;51.226;6.904;2022-09-09T09:33:05;13.20;;;2.00;;
4835;SDS011;2432;51.226;6.904;2022-09-09T09:35:44;11.80;;;1.93;;
4835;SDS011;2432;51.226;6.904;2022-09-09T09:38:51;15.70;;;2.00;;
4835;SDS011;2432;51.226;6.904;2022-09-09T09:41:36;13.07;;;2.70;;
4835;SDS011;2432;51.226;6.904;2022-09-09T09:44:18;14.60;;;2.10;;
4835;SDS011;2432;51.226;6.904;2022-09-09T09:47:08;11.33;;;1.97;;
4835;SDS011;2432;51.226;6.904;2022-09-09T09:49:39;14.03;;;2.73;;
4835;SDS011;2432;51.226;6.904;2022-09-09T09:52:17;13.87;;;3.13;;
4835;SDS011;2432;51.226;6.904;2022-09-09T09:54:48;10.87;;;2.20;;
4835;SDS011;2432;51.226;6.904;2022-09-09T09:57:16;11.23;;;1.80;;
4835;SDS011;2432;51.226;6.904;2022-09-09T09:59:44;10.40;;;1.70;;
4835;SDS011;2432;51.226;6.904;2022-09-09T10:02:21;11.83;;;1.90;;
4835;SDS011;2432;51.226;6.904;2022-09-09T10:07:45;10.33;;;2.30;;
4835;SDS011;2432;51.226;6.904;2022-09-09T10:10:21;9.97;;;2.17;;
4835;SDS011;2432;51.226;6.904;2022-09-09T10:32:45;10.77;;;1.80;;
4835;SDS011;2432;51.226;6.904;2022-09-09T10:35:27;9.37;;;1.50;;
4835;SDS011;2432;51.226;6.904;2022-09-09T10:46:26;11.50;;;2.00;;
4835;SDS011;2432;51.226;6.904;2022-09-09T10:51:57;9.37;;;1.80;;
4835;SDS011;2432;51.226;6.904;2022-09-09T10:57:26;13.30;;;1.53;;
4835;SDS011;2432;51.226;6.904;2022-09-09T11:00:54;11.77;;;1.60;;
4835;SDS011;2432;51.226;6.904;2022-09-09T11:03:11;10.80;;;1.33;;
4835;SDS011;2432;51.226;6.904;2022-09-09T11:05:58;14.57;;;1.83;;
4835;SDS011;2432;51.226;6.904;2022-09-09T11:08:34;10.27;;;1.30;;
4835;SDS011;2432;51.226;6.904;2022-09-09T11:11:07;9.33;;;1.73;;
4835;SDS011;2432;51.226;6.904;2022-09-09T11:16:39;9.53;;;1.37;;
4835;SDS011;2432;51.226;6.904;2022-09-09T11:21:53;8.50;;;1.40;;
4835;SDS011;2432;51.226;6.904;2022-09-09T11:27:15;14.77;;;4.60;;
4835;SDS011;2432;51.226;6.904;2022-09-09T11:30:18;9.93;;;1.70;;
4835;SDS011;2432;51.226;6.904;2022-09-09T11:38:19;10.90;;;1.50;;
4835;SDS011;2432;51.226;6.904;2022-09-09T11:41:01;13.23;;;1.70;;
4835;SDS011;2432;51.226;6.904;2022-09-09T11:43:37;9.40;;;1.40;;
4835;SDS011;2432;51.226;6.904;2022-09-09T11:46:18;9.27;;;1.63;;
4835;SDS011;2432;51.226;6.904;2022-09-09T11:49:01;9.10;;;1.80;;
4835;SDS011;2432;51.226;6.904;2022-09-09T11:51:30;8.57;;;1.70;;
4835;SDS011;2432;51.226;6.904;2022-09-09T11:54:02;12.33;;;1.60;;
4835;SDS011;2432;51.226;6.904;2022-09-09T11:56:55;11.27;;;1.40;;
4835;SDS011;2432;51.226;6.904;2022-09-09T11:59:32;8.60;;;1.50;;
4835;SDS011;2432;51.226;6.904;2022-09-09T12:02:08;11.30;;;1.90;;
4835;SDS011;2432;51.226;6.904;2022-09-09T12:04:46;14.10;;;1.60;;
4835;SDS011;2432;51.226;6.904;2022-09-09T12:07:29;13.00;;;1.77;;
4835;SDS011;2432;51.226;6.904;2022-09-09T12:10:05;18.60;;;3.07;;
4835;SDS011;2432;51.226;6.904;2022-09-09T12:12:50;11.00;;;1.50;;
4835;SDS011;2432;51.226;6.904;2022-09-09T12:15:19;14.47;;;1.73;;
4835;SDS011;2432;51.226;6.904;2022-09-09T12:17:48;10.47;;;1.50;;
4835;SDS011;2432;51.226;6.904;2022-09-09T12:20:21;13.73;;;1.87;;
4835;SDS011;2432;51.226;6.904;2022-09-09T12:28:05;10.57;;;1.93;;
4835;SDS011;2432;51.226;6.904;2022-09-09T12:30:43;13.53;;;2.13;;
4835;SDS011;2432;51.226;6.904;2022-09-09T12:33:19;10.37;;;2.00;;
4835;SDS011;2432;51.226;6.904;2022-09-09T12:35:47;10.33;;;2.20;;
4835;SDS011;2432;51.226;6.904;2022-09-09T12:38:27;10.73;;;1.60;;
4835;SDS011;2432;51.226;6.904;2022-09-09T12:41:00;11.50;;;1.97;;
4835;SDS011;2432;51.226;6.904;2022-09-09T12:43:27;9.80;;;1.57;;
4835;SDS011;2432;51.226;6.904;2022-09-09T12:45:56;9.60;;;1.73;;
4835;SDS011;2432;51.226;6.904;2022-09-09T12:53:58;14.33;;;1.80;;
4835;SDS011;2432;51.226;6.904;2022-09-09T12:56:26;12.47;;;2.17;;
4835;SDS011;2432;51.226;6.904;2022-09-09T12:58:56;18.10;;;2.10;;
4835;SDS011;2432;51.226;6.904;2022-09-09T13:01:25;10.80;;;2.23;;
4835;SDS011;2432;51.226;6.904;2022-09-09T13:03:56;8.70;;;1.63;;
4835;SDS011;2432;51.226;6.904;2022-09-09T13:06:24;13.33;;;1.90;;
4835;SDS011;2432;51.226;6.904;2022-09-09T13:08:55;10.67;;;2.77;;
4835;SDS011;2432;51.226;6.904;2022-09-09T13:13:52;11.67;;;2.00;;
4835;SDS011;2432;51.226;6.904;2022-09-09T13:16:23;12.17;;;2.10;;
4835;SDS011;2432;51.226;6.904;2022-09-09T13:18:58;9.63;;;1.67;;
4835;SDS011;2432;51.226;6.904;2022-09-09T13:21:31;15.10;;;2.00;;
4835;SDS011;2432;51.226;6.904;2022-09-09T13:24:06;10.47;;;1.70;;
4835;SDS011;2432;51.226;6.904;2022-09-09T13:26:59;11.23;;;1.53;;
4835;SDS011;2432;51.226;6.904;2022-09-09T13:29:28;11.60;;;1.80;;
4835;SDS011;2432;51.226;6.904;2022-09-09T13:34:58;11.17;;;1.90;;
4835;SDS011;2432;51.226;6.904;2022-09-09T13:37:33;9.00;;;1.80;;
4835;SDS011;2432;51.226;6.904;2022-09-09T13:40:02;12.30;;;2.10;;
4835;SDS011;2432;51.226;6.904;2022-09-09T13:42:32;9.00;;;1.70;;
4835;SDS011;2432;51.226;6.904;2022-09-09T13:45:03;12.10;;;2.10;;
4835;SDS011;2432;51.226;6.904;2022-09-09T13:47:34;12.40;;;2.70;;
4835;SDS011;2432;51.226;6.904;2022-09-09T13:52:56;10.17;;;1.90;;
4835;SDS011;2432;51.226;6.904;2022-09-09T13:55:27;10.60;;;1.93;;
4835;SDS011;2432;51.226;6.904;2022-09-09T13:57:59;9.50;;;2.10;;
4835;SDS011;2432;51.226;6.904;2022-09-09T14:00:32;13.67;;;2.23;;
4835;SDS011;2432;51.226;6.904;2022-09-09T14:03:00;8.50;;;1.70;;
4835;SDS011;2432;51.226;6.904;2022-09-09T14:05:29;13.40;;;2.17;;
4835;SDS011;2432;51.226;6.904;2022-09-09T14:07:57;9.67;;;2.10;;
4835;SDS011;2432;51.226;6.904;2022-09-09T14:10:26;11.73;;;2.10;;
4835;SDS011;2432;51.226;6.904;2022-09-09T14:12:52;10.80;;;2.10;;
4835;SDS011;2432;51.226;6.904;2022-09-09T14:15:19;16.90;;;2.67;;
4835;SDS011;2432;51.226;6.904;2022-09-09T14:17:46;11.67;;;1.93;;
4835;SDS011;2432;51.226;6.904;2022-09-09T14:20:12;10.87;;;1.90;;
4835;SDS011;2432;51.226;6.904;2022-09-09T14:22:41;13.30;;;2.50;;
4835;SDS011;2432;51.226;6.904;2022-09-09T14:25:08;8.87;;;1.80;;
4835;SDS011;2432;51.226;6.904;2022-09-09T14:27:34;11.47;;;1.67;;
4835;SDS011;2432;51.226;6.904;2022-09-09T14:30:01;9.03;;;1.60;;
4835;SDS011;2432;51.226;6.904;2022-09-09T14:32:27;10.83;;;1.77;;
4835;SDS011;2432;51.226;6.904;2022-09-09T14:34:55;10.83;;;1.80;;
4835;SDS011;2432;51.226;6.904;2022-09-09T14:37:21;8.37;;;1.40;;
4835;SDS011;2432;51.226;6.904;2022-09-09T14:39:48;9.73;;;1.57;;
4835;SDS011;2432;51.226;6.904;2022-09-09T14:42:16;10.43;;;1.90;;
4835;SDS011;2432;51.226;6.904;2022-09-09T14:44:43;8.10;;;1.57;;
4835;SDS011;2432;51.226;6.904;2022-09-09T14:47:10;17.20;;;1.80;;
4835;SDS011;2432;51.226;6.904;2022-09-09T14:49:36;9.17;;;1.43;;
4835;SDS011;2432;51.226;6.904;2022-09-09T14:52:06;9.33;;;1.33;;
4835;SDS011;2432;51.226;6.904;2022-09-09T14:54:35;8.70;;;1.40;;
4835;SDS011;2432;51.226;6.904;2022-09-09T14:57:01;11.67;;;1.40;;
4835;SDS011;2432;51.226;6.904;2022-09-09T14:59:28;9.63;;;1.40;;
4835;SDS011;2432;51.226;6.904;2022-09-09T15:01:54;8.40;;;1.10;;
4835;SDS011;2432;51.226;6.904;2022-09-09T15:04:21;13.57;;;2.47;;
4835;SDS011;2432;51.226;6.904;2022-09-09T15:06:48;9.80;;;1.43;;
4835;SDS011;2432;51.226;6.904;2022-09-09T15:09:15;9.00;;;1.30;;
4835;SDS011;2432;51.226;6.904;2022-09-09T15:11:42;9.73;;;1.43;;
4835;SDS011;2432;51.226;6.904;2022-09-09T15:14:10;8.60;;;1.20;;
4835;SDS011;2432;51.226;6.904;2022-09-09T15:16:38;8.43;;;1.30;;
4835;SDS011;2432;51.226;6.904;2022-09-09T15:19:05;7.27;;;1.27;;
4835;SDS011;2432;51.226;6.904;2022-09-09T15:21:34;9.40;;;1.23;;
4835;SDS011;2432;51.226;6.904;2022-09-09T15:24:02;9.63;;;1.27;;
4835;SDS011;2432;51.226;6.904;2022-09-09T15:26:29;14.10;;;1.60;;
4835;SDS011;2432;51.226;6.904;2022-09-09T15:28:56;9.17;;;1.30;;
4835;SDS011;2432;51.226;6.904;2022-09-09T15:31:26;9.90;;;1.47;;
4835;SDS011;2432;51.226;6.904;2022-09-09T15:33:55;10.17;;;1.20;;
4835;SDS011;2432;51.226;6.904;2022-09-09T15:36:30;9.43;;;1.60;;
4835;SDS011;2432;51.226;6.904;2022-09-09T15:38:59;8.57;;;1.50;;
4835;SDS011;2432;51.226;6.904;2022-09-09T15:41:26;8.00;;;1.40;;
4835;SDS011;2432;51.226;6.904;2022-09-09T15:43:54;11.57;;;1.87;;
4835;SDS011;2432;51.226;6.904;2022-09-09T15:46:35;8.53;;;1.60;;
4835;SDS011;2432;51.226;6.904;2022-09-09T15:49:08;9.10;;;1.50;;
4835;SDS011;2432;51.226;6.904;2022-09-09T15:51:46;9.67;;;1.47;;
4835;SDS011;2432;51.226;6.904;2022-09-09T15:54:15;10.23;;;1.90;;
4835;SDS011;2432;51.226;6.904;2022-09-09T15:56:44;9.60;;;1.47;;
4835;SDS011;2432;51.226;6.904;2022-09-09T15:59:12;14.97;;;2.30;;
4835;SDS011;2432;51.226;6.904;2022-09-09T16:01:40;17.27;;;3.43;;
4835;SDS011;2432;51.226;6.904;2022-09-09T16:04:08;15.43;;;2.67;;
4835;SDS011;2432;51.226;6.904;2022-09-09T16:06:34;10.00;;;2.67;;
4835;SDS011;2432;51.226;6.904;2022-09-09T16:09:02;12.87;;;2.50;;
4835;SDS011;2432;51.226;6.904;2022-09-09T16:11:31;10.03;;;1.97;;
4835;SDS011;2432;51.226;6.904;2022-09-09T16:13:59;10.40;;;2.30;;
4835;SDS011;2432;51.226;6.904;2022-09-09T16:16:27;10.90;;;2.70;;
4835;SDS011;2432;51.226;6.904;2022-09-09T16:18:56;10.83;;;2.23;;
4835;SDS011;2432;51.226;6.904;2022-09-09T16:23:52;10.93;;;2.40;;
4835;SDS011;2432;51.226;6.904;2022-09-09T16:26:22;13.40;;;2.40;;
4835;SDS011;2432;51.226;6.904;2022-09-09T16:28:49;12.20;;;2.57;;
4835;SDS011;2432;51.226;6.904;2022-09-09T16:31:19;11.17;;;2.10;;
4835;SDS011;2432;51.226;6.904;2022-09-09T16:33:48;11.10;;;1.90;;
4835;SDS011;2432;51.226;6.904;2022-09-09T16:36:17;9.27;;;1.67;;
4835;SDS011;2432;51.226;6.904;2022-09-09T16:38:45;10.90;;;2.07;;
4835;SDS011;2432;51.226;6.904;2022-09-09T16:41:12;16.00;;;2.80;;
4835;SDS011;2432;51.226;6.904;2022-09-09T16:43:40;12.23;;;1.83;;
4835;SDS011;2432;51.226;6.904;2022-09-09T16:46:14;10.50;;;2.30;;
4835;SDS011;2432;51.226;6.904;2022-09-09T16:48:45;14.73;;;2.90;;
4835;SDS011;2432;51.226;6.904;2022-09-09T16:51:14;9.67;;;2.13;;
4835;SDS011;2432;51.226;6.904;2022-09-09T16:53:43;13.83;;;2.00;;
4835;SDS011;2432;51.226;6.904;2022-09-09T16:56:11;9.77;;;1.90;;
4835;SDS011;2432;51.226;6.904;2022-09-09T16:58:43;9.53;;;2.00;;
4835;SDS011;2432;51.226;6.904;2022-09-09T17:01:11;11.83;;;1.97;;
4835;SDS011;2432;51.226;6.904;2022-09-09T17:03:40;11.27;;;2.07;;
4835;SDS011;2432;51.226;6.904;2022-09-09T17:06:10;10.43;;;1.97;;
4835;SDS011;2432;51.226;6.904;2022-09-09T17:08:39;14.10;;;3.10;;
4835;SDS011;2432;51.226;6.904;2022-09-09T17:11:17;11.90;;;3.07;;
4835;SDS011;2432;51.226;6.904;2022-09-09T17:13:45;12.10;;;2.67;;
4835;SDS011;2432;51.226;6.904;2022-09-09T17:16:13;10.70;;;2.63;;
4835;SDS011;2432;51.226;6.904;2022-09-09T17:18:43;10.37;;;2.70;;
4835;SDS011;2432;51.226;6.904;2022-09-09T17:21:13;12.30;;;2.80;;
4835;SDS011;2432;51.226;6.904;2022-09-09T17:23:41;12.87;;;3.17;;
4835;SDS011;2432;51.226;6.904;2022-09-09T17:26:08;15.27;;;4.00;;
4835;SDS011;2432;51.226;6.904;2022-09-09T17:28:38;15.00;;;3.97;;
4835;SDS011;2432;51.226;6.904;2022-09-09T17:31:06;14.53;;;3.60;;
4835;SDS011;2432;51.226;6.904;2022-09-09T17:33:34;12.23;;;2.83;;
4835;SDS011;2432;51.226;6.904;2022-09-09T17:36:07;12.13;;;3.13;;
4835;SDS011;2432;51.226;6.904;2022-09-09T17:38:37;11.93;;;2.83;;
4835;SDS011;2432;51.226;6.904;2022-09-09T17:41:15;14.27;;;3.80;;
4835;SDS011;2432;51.226;6.904;2022-09-09T17:43:43;10.80;;;3.57;;
4835;SDS011;2432;51.226;6.904;2022-09-09T17:48:48;15.90;;;3.90;;
4835;SDS011;2432;51.226;6.904;2022-09-09T17:51:18;13.80;;;3.80;;
4835;SDS011;2432;51.226;6.904;2022-09-09T17:53:47;13.40;;;3.90;;
4835;SDS011;2432;51.226;6.904;2022-09-09T17:56:15;11.53;;;2.40;;
4835;SDS011;2432;51.226;6.904;2022-09-09T17:58:43;9.83;;;2.20;;
4835;SDS011;2432;51.226;6.904;2022-09-09T18:01:18;10.63;;;2.00;;
4835;SDS011;2432;51.226;6.904;2022-09-09T18:03:48;15.40;;;1.83;;
4835;SDS011;2432;51.226;6.904;2022-09-09T18:06:17;11.50;;;1.97;;